sensor_id;sensor_type;location;lat;lon;timestamp;P1;durP1;ratioP1;P2;durP2;ratioP2
71975;SDS011;68326;52.124;5.424;2023-05-07T00:00:14;8.45;;;6.55;;
71975;SDS011;68326;52.124;5.424;2023-05-07T00:02:44;8.10;;;6.22;;
71975;SDS011;68326;52.124;5.424;2023-05-07T00:05:11;7.22;;;6.05;;
71975;SDS011;68326;52.124;5.424;2023-05-07T00:07:40;8.30;;;5.63;;
71975;SDS011;68326;52.124;5.424;2023-05-07T00:10:07;8.95;;;6.78;;
71975;SDS011;68326;52.124;5.424;2023-05-07T00:12:34;6.88;;;6.00;;
71975;SDS011;68326;52.124;5.424;2023-05-07T00:15:04;7.50;;;5.63;;
71975;SDS011;68326;52.124;5.424;2023-05-07T00:17:32;6.60;;;5.30;;
71975;SDS011;68326;52.124;5.424;2023-05-07T00:19:59;7.30;;;5.60;;
71975;SDS011;68326;52.124;5.424;2023-05-07T00:22:25;7.75;;;5.80;;
71975;SDS011;68326;52.124;5.424;2023-05-07T00:24:52;6.78;;;5.97;;
71975;SDS011;68326;52.124;5.424;2023-05-07T00:27:18;7.28;;;5.65;;
71975;SDS011;68326;52.124;5.424;2023-05-07T00:29:45;7.95;;;5.90;;
71975;SDS011;68326;52.124;5.424;2023-05-07T00:32:11;7.27;;;5.67;;
71975;SDS011;68326;52.124;5.424;2023-05-07T00:34:38;8.38;;;5.82;;
71975;SDS011;68326;52.124;5.424;2023-05-07T00:37:05;6.05;;;5.45;;
71975;SDS011;68326;52.124;5.424;2023-05-07T00:39:33;8.25;;;5.90;;
71975;SDS011;68326;52.124;5.424;2023-05-07T00:42:00;7.85;;;6.15;;
71975;SDS011;68326;52.124;5.424;2023-05-07T00:44:26;8.33;;;6.40;;
71975;SDS011;68326;52.124;5.424;2023-05-07T00:46:54;9.63;;;6.00;;
71975;SDS011;68326;52.124;5.424;2023-05-07T00:49:26;8.90;;;6.57;;
71975;SDS011;68326;52.124;5.424;2023-05-07T00:52:03;7.10;;;5.82;;
71975;SDS011;68326;52.124;5.424;2023-05-07T00:54:31;9.20;;;5.90;;
71975;SDS011;68326;52.124;5.424;2023-05-07T00:56:58;6.37;;;5.77;;
71975;SDS011;68326;52.124;5.424;2023-05-07T00:59:24;11.00;;;6.00;;
71975;SDS011;68326;52.124;5.424;2023-05-07T01:01:51;7.57;;;6.15;;
71975;SDS011;68326;52.124;5.424;2023-05-07T01:04:18;6.90;;;5.95;;
71975;SDS011;68326;52.124;5.424;2023-05-07T01:06:45;8.63;;;6.47;;
71975;SDS011;68326;52.124;5.424;2023-05-07T01:09:12;8.20;;;6.17;;
71975;SDS011;68326;52.124;5.424;2023-05-07T01:11:39;10.35;;;6.00;;
71975;SDS011;68326;52.124;5.424;2023-05-07T01:14:06;10.27;;;6.35;;
71975;SDS011;68326;52.124;5.424;2023-05-07T01:16:34;8.27;;;6.57;;
71975;SDS011;68326;52.124;5.424;2023-05-07T01:19:02;6.65;;;5.90;;
71975;SDS011;68326;52.124;5.424;2023-05-07T01:21:29;8.33;;;5.87;;
71975;SDS011;68326;52.124;5.424;2023-05-07T01:23:59;14.13;;;6.57;;
71975;SDS011;68326;52.124;5.424;2023-05-07T01:26:25;15.55;;;6.53;;
71975;SDS011;68326;52.124;5.424;2023-05-07T01:28:52;8.80;;;6.05;;
71975;SDS011;68326;52.124;5.424;2023-05-07T01:31:18;8.00;;;6.32;;
71975;SDS011;68326;52.124;5.424;2023-05-07T01:33:46;7.30;;;6.40;;
71975;SDS011;68326;52.124;5.424;2023-05-07T01:36:14;8.23;;;6.38;;
71975;SDS011;68326;52.124;5.424;2023-05-07T01:38:43;8.45;;;6.60;;
71975;SDS011;68326;52.124;5.424;2023-05-07T01:41:12;8.10;;;6.63;;
71975;SDS011;68326;52.124;5.424;2023-05-07T01:43:40;8.63;;;6.13;;
71975;SDS011;68326;52.124;5.424;2023-05-07T01:46:08;9.47;;;5.60;;
71975;SDS011;68326;52.124;5.424;2023-05-07T01:48:36;8.48;;;5.85;;
71975;SDS011;68326;52.124;5.424;2023-05-07T01:51:04;11.20;;;6.85;;
71975;SDS011;68326;52.124;5.424;2023-05-07T01:53:35;9.70;;;6.40;;
71975;SDS011;68326;52.124;5.424;2023-05-07T01:56:03;8.10;;;6.47;;
71975;SDS011;68326;52.124;5.424;2023-05-07T01:58:29;6.77;;;6.07;;
71975;SDS011;68326;52.124;5.424;2023-05-07T02:00:56;7.07;;;6.10;;
71975;SDS011;68326;52.124;5.424;2023-05-07T02:03:22;8.45;;;6.63;;
71975;SDS011;68326;52.124;5.424;2023-05-07T02:05:49;9.30;;;6.07;;
71975;SDS011;68326;52.124;5.424;2023-05-07T02:08:15;8.38;;;5.70;;
71975;SDS011;68326;52.124;5.424;2023-05-07T02:10:42;6.73;;;5.80;;
71975;SDS011;68326;52.124;5.424;2023-05-07T02:13:08;7.45;;;5.97;;
71975;SDS011;68326;52.124;5.424;2023-05-07T02:15:35;10.70;;;6.50;;
71975;SDS011;68326;52.124;5.424;2023-05-07T02:18:05;11.85;;;7.03;;
71975;SDS011;68326;52.124;5.424;2023-05-07T02:20:37;8.18;;;6.20;;
71975;SDS011;68326;52.124;5.424;2023-05-07T02:23:04;8.33;;;6.47;;
71975;SDS011;68326;52.124;5.424;2023-05-07T02:25:30;7.03;;;6.15;;
71975;SDS011;68326;52.124;5.424;2023-05-07T02:27:57;8.45;;;6.40;;
71975;SDS011;68326;52.124;5.424;2023-05-07T02:30:24;8.93;;;6.82;;
71975;SDS011;68326;52.124;5.424;2023-05-07T02:32:51;9.70;;;6.85;;
71975;SDS011;68326;52.124;5.424;2023-05-07T02:35:17;8.87;;;6.50;;
71975;SDS011;68326;52.124;5.424;2023-05-07T02:37:44;7.82;;;6.20;;
71975;SDS011;68326;52.124;5.424;2023-05-07T02:40:11;9.38;;;6.10;;
71975;SDS011;68326;52.124;5.424;2023-05-07T02:42:38;7.90;;;6.03;;
71975;SDS011;68326;52.124;5.424;2023-05-07T02:45:04;8.02;;;6.47;;
71975;SDS011;68326;52.124;5.424;2023-05-07T02:47:31;8.77;;;6.83;;
71975;SDS011;68326;52.124;5.424;2023-05-07T02:49:58;8.27;;;6.47;;
71975;SDS011;68326;52.124;5.424;2023-05-07T02:52:24;8.88;;;7.35;;
71975;SDS011;68326;52.124;5.424;2023-05-07T02:54:51;11.52;;;7.13;;
71975;SDS011;68326;52.124;5.424;2023-05-07T02:57:17;9.98;;;7.38;;
71975;SDS011;68326;52.124;5.424;2023-05-07T02:59:43;11.37;;;7.33;;
71975;SDS011;68326;52.124;5.424;2023-05-07T03:02:10;10.00;;;7.15;;
71975;SDS011;68326;52.124;5.424;2023-05-07T03:04:36;9.48;;;7.15;;
71975;SDS011;68326;52.124;5.424;2023-05-07T03:07:03;12.02;;;6.95;;
71975;SDS011;68326;52.124;5.424;2023-05-07T03:09:30;11.57;;;7.32;;
71975;SDS011;68326;52.124;5.424;2023-05-07T03:11:56;8.73;;;6.90;;
71975;SDS011;68326;52.124;5.424;2023-05-07T03:14:23;9.20;;;6.88;;
71975;SDS011;68326;52.124;5.424;2023-05-07T03:16:49;8.57;;;7.15;;
71975;SDS011;68326;52.124;5.424;2023-05-07T03:19:16;10.18;;;6.82;;
71975;SDS011;68326;52.124;5.424;2023-05-07T03:21:42;9.95;;;7.72;;
71975;SDS011;68326;52.124;5.424;2023-05-07T03:24:09;10.50;;;7.57;;
71975;SDS011;68326;52.124;5.424;2023-05-07T03:26:35;9.88;;;7.80;;
71975;SDS011;68326;52.124;5.424;2023-05-07T03:29:02;10.25;;;7.32;;
71975;SDS011;68326;52.124;5.424;2023-05-07T03:31:28;9.60;;;7.45;;
71975;SDS011;68326;52.124;5.424;2023-05-07T03:33:55;8.80;;;7.63;;
71975;SDS011;68326;52.124;5.424;2023-05-07T03:36:23;9.23;;;7.07;;
71975;SDS011;68326;52.124;5.424;2023-05-07T03:38:52;8.55;;;6.78;;
71975;SDS011;68326;52.124;5.424;2023-05-07T03:41:19;9.68;;;7.63;;
71975;SDS011;68326;52.124;5.424;2023-05-07T03:43:46;7.60;;;6.80;;
71975;SDS011;68326;52.124;5.424;2023-05-07T03:46:13;7.35;;;6.50;;
71975;SDS011;68326;52.124;5.424;2023-05-07T03:48:39;10.23;;;7.70;;
71975;SDS011;68326;52.124;5.424;2023-05-07T03:51:05;8.90;;;7.13;;
71975;SDS011;68326;52.124;5.424;2023-05-07T03:53:32;9.13;;;7.60;;
71975;SDS011;68326;52.124;5.424;2023-05-07T03:55:58;9.10;;;7.38;;
71975;SDS011;68326;52.124;5.424;2023-05-07T03:58:25;9.27;;;7.00;;
71975;SDS011;68326;52.124;5.424;2023-05-07T04:00:52;9.20;;;7.37;;
71975;SDS011;68326;52.124;5.424;2023-05-07T04:03:18;9.48;;;6.85;;
71975;SDS011;68326;52.124;5.424;2023-05-07T04:05:45;8.00;;;6.80;;
71975;SDS011;68326;52.124;5.424;2023-05-07T04:08:11;9.57;;;6.50;;
71975;SDS011;68326;52.124;5.424;2023-05-07T04:10:37;9.85;;;7.45;;
71975;SDS011;68326;52.124;5.424;2023-05-07T04:13:04;9.07;;;7.43;;
71975;SDS011;68326;52.124;5.424;2023-05-07T04:15:30;9.10;;;7.43;;
71975;SDS011;68326;52.124;5.424;2023-05-07T04:17:57;9.43;;;7.72;;
71975;SDS011;68326;52.124;5.424;2023-05-07T04:20:23;10.50;;;7.65;;
71975;SDS011;68326;52.124;5.424;2023-05-07T04:22:50;9.00;;;7.55;;
71975;SDS011;68326;52.124;5.424;2023-05-07T04:25:16;10.67;;;8.00;;
71975;SDS011;68326;52.124;5.424;2023-05-07T04:27:43;13.07;;;7.82;;
71975;SDS011;68326;52.124;5.424;2023-05-07T04:30:09;11.68;;;8.35;;
71975;SDS011;68326;52.124;5.424;2023-05-07T04:32:36;12.15;;;7.78;;
71975;SDS011;68326;52.124;5.424;2023-05-07T04:35:03;11.07;;;7.70;;
71975;SDS011;68326;52.124;5.424;2023-05-07T04:37:31;14.23;;;8.50;;
71975;SDS011;68326;52.124;5.424;2023-05-07T04:39:58;12.73;;;8.13;;
71975;SDS011;68326;52.124;5.424;2023-05-07T04:42:24;11.73;;;8.80;;
71975;SDS011;68326;52.124;5.424;2023-05-07T04:44:52;12.55;;;8.82;;
71975;SDS011;68326;52.124;5.424;2023-05-07T04:47:19;12.38;;;7.70;;
71975;SDS011;68326;52.124;5.424;2023-05-07T04:49:46;13.00;;;8.17;;
71975;SDS011;68326;52.124;5.424;2023-05-07T04:52:12;11.10;;;8.18;;
71975;SDS011;68326;52.124;5.424;2023-05-07T04:54:39;12.70;;;8.43;;
71975;SDS011;68326;52.124;5.424;2023-05-07T04:57:05;12.75;;;7.72;;
71975;SDS011;68326;52.124;5.424;2023-05-07T04:59:32;11.32;;;7.85;;
71975;SDS011;68326;52.124;5.424;2023-05-07T05:01:59;12.53;;;7.73;;
71975;SDS011;68326;52.124;5.424;2023-05-07T05:04:26;11.57;;;8.30;;
71975;SDS011;68326;52.124;5.424;2023-05-07T05:06:52;11.90;;;7.97;;
71975;SDS011;68326;52.124;5.424;2023-05-07T05:09:19;12.38;;;8.20;;
71975;SDS011;68326;52.124;5.424;2023-05-07T05:11:45;12.27;;;8.23;;
71975;SDS011;68326;52.124;5.424;2023-05-07T05:14:12;11.53;;;7.80;;
71975;SDS011;68326;52.124;5.424;2023-05-07T05:16:38;11.00;;;7.93;;
71975;SDS011;68326;52.124;5.424;2023-05-07T05:19:05;12.07;;;8.30;;
71975;SDS011;68326;52.124;5.424;2023-05-07T05:21:32;11.88;;;8.07;;
71975;SDS011;68326;52.124;5.424;2023-05-07T05:23:58;13.45;;;8.70;;
71975;SDS011;68326;52.124;5.424;2023-05-07T05:26:24;11.23;;;8.13;;
71975;SDS011;68326;52.124;5.424;2023-05-07T05:28:51;13.38;;;8.23;;
71975;SDS011;68326;52.124;5.424;2023-05-07T05:31:18;14.10;;;8.38;;
71975;SDS011;68326;52.124;5.424;2023-05-07T05:33:44;13.68;;;8.35;;
71975;SDS011;68326;52.124;5.424;2023-05-07T05:36:11;13.10;;;9.20;;
71975;SDS011;68326;52.124;5.424;2023-05-07T05:38:39;11.27;;;8.13;;
71975;SDS011;68326;52.124;5.424;2023-05-07T05:41:06;13.68;;;8.57;;
71975;SDS011;68326;52.124;5.424;2023-05-07T05:43:32;12.98;;;8.48;;
71975;SDS011;68326;52.124;5.424;2023-05-07T05:45:59;13.98;;;9.18;;
71975;SDS011;68326;52.124;5.424;2023-05-07T05:48:28;13.63;;;8.75;;
71975;SDS011;68326;52.124;5.424;2023-05-07T05:50:55;13.03;;;8.83;;
71975;SDS011;68326;52.124;5.424;2023-05-07T05:53:21;10.73;;;8.35;;
71975;SDS011;68326;52.124;5.424;2023-05-07T05:55:49;15.60;;;9.18;;
71975;SDS011;68326;52.124;5.424;2023-05-07T05:58:15;18.50;;;9.85;;
71975;SDS011;68326;52.124;5.424;2023-05-07T06:00:42;13.68;;;10.23;;
71975;SDS011;68326;52.124;5.424;2023-05-07T06:03:08;13.17;;;9.07;;
71975;SDS011;68326;52.124;5.424;2023-05-07T06:05:36;13.95;;;9.45;;
71975;SDS011;68326;52.124;5.424;2023-05-07T06:08:03;13.50;;;9.50;;
71975;SDS011;68326;52.124;5.424;2023-05-07T06:10:29;13.85;;;9.45;;
71975;SDS011;68326;52.124;5.424;2023-05-07T06:12:56;13.50;;;9.82;;
71975;SDS011;68326;52.124;5.424;2023-05-07T06:15:23;12.90;;;9.53;;
71975;SDS011;68326;52.124;5.424;2023-05-07T06:17:49;13.98;;;9.88;;
71975;SDS011;68326;52.124;5.424;2023-05-07T06:20:16;13.07;;;9.27;;
71975;SDS011;68326;52.124;5.424;2023-05-07T06:22:42;15.77;;;9.40;;
71975;SDS011;68326;52.124;5.424;2023-05-07T06:25:08;13.30;;;9.85;;
71975;SDS011;68326;52.124;5.424;2023-05-07T06:27:35;14.77;;;10.23;;
71975;SDS011;68326;52.124;5.424;2023-05-07T06:30:01;14.45;;;10.15;;
71975;SDS011;68326;52.124;5.424;2023-05-07T06:32:28;14.73;;;10.43;;
71975;SDS011;68326;52.124;5.424;2023-05-07T06:34:55;15.15;;;10.30;;
71975;SDS011;68326;52.124;5.424;2023-05-07T06:37:21;12.38;;;9.98;;
71975;SDS011;68326;52.124;5.424;2023-05-07T06:39:48;14.87;;;9.67;;
71975;SDS011;68326;52.124;5.424;2023-05-07T06:42:14;12.30;;;9.93;;
71975;SDS011;68326;52.124;5.424;2023-05-07T06:44:41;15.80;;;10.82;;
71975;SDS011;68326;52.124;5.424;2023-05-07T06:47:07;17.13;;;10.50;;
71975;SDS011;68326;52.124;5.424;2023-05-07T06:49:34;14.75;;;10.00;;
71975;SDS011;68326;52.124;5.424;2023-05-07T06:52:00;14.83;;;9.83;;
71975;SDS011;68326;52.124;5.424;2023-05-07T06:54:27;13.82;;;10.35;;
71975;SDS011;68326;52.124;5.424;2023-05-07T06:56:53;15.35;;;10.98;;
71975;SDS011;68326;52.124;5.424;2023-05-07T06:59:19;15.82;;;10.57;;
71975;SDS011;68326;52.124;5.424;2023-05-07T07:01:46;14.63;;;10.30;;
71975;SDS011;68326;52.124;5.424;2023-05-07T07:04:13;16.83;;;11.00;;
71975;SDS011;68326;52.124;5.424;2023-05-07T07:06:39;15.05;;;10.43;;
71975;SDS011;68326;52.124;5.424;2023-05-07T07:09:06;14.95;;;10.82;;
71975;SDS011;68326;52.124;5.424;2023-05-07T07:11:32;14.00;;;10.20;;
71975;SDS011;68326;52.124;5.424;2023-05-07T07:13:59;14.52;;;11.02;;
71975;SDS011;68326;52.124;5.424;2023-05-07T07:16:25;15.40;;;10.53;;
71975;SDS011;68326;52.124;5.424;2023-05-07T07:18:52;14.52;;;10.82;;
71975;SDS011;68326;52.124;5.424;2023-05-07T07:21:18;15.68;;;10.98;;
71975;SDS011;68326;52.124;5.424;2023-05-07T07:23:44;18.25;;;10.48;;
71975;SDS011;68326;52.124;5.424;2023-05-07T07:26:11;19.75;;;11.43;;
71975;SDS011;68326;52.124;5.424;2023-05-07T07:28:44;15.87;;;10.83;;
71975;SDS011;68326;52.124;5.424;2023-05-07T07:31:11;16.13;;;10.98;;
71975;SDS011;68326;52.124;5.424;2023-05-07T07:33:39;13.98;;;10.40;;
71975;SDS011;68326;52.124;5.424;2023-05-07T07:36:06;16.27;;;11.35;;
71975;SDS011;68326;52.124;5.424;2023-05-07T07:38:33;15.63;;;10.40;;
71975;SDS011;68326;52.124;5.424;2023-05-07T07:41:01;13.57;;;10.20;;
71975;SDS011;68326;52.124;5.424;2023-05-07T07:43:27;14.95;;;10.88;;
71975;SDS011;68326;52.124;5.424;2023-05-07T07:45:54;13.98;;;10.40;;
71975;SDS011;68326;52.124;5.424;2023-05-07T07:48:21;16.48;;;10.85;;
71975;SDS011;68326;52.124;5.424;2023-05-07T07:50:51;15.63;;;10.93;;
71975;SDS011;68326;52.124;5.424;2023-05-07T07:53:17;15.93;;;10.63;;
71975;SDS011;68326;52.124;5.424;2023-05-07T07:55:44;13.82;;;10.55;;
71975;SDS011;68326;52.124;5.424;2023-05-07T07:58:11;16.42;;;10.98;;
71975;SDS011;68326;52.124;5.424;2023-05-07T08:00:37;17.05;;;11.85;;
71975;SDS011;68326;52.124;5.424;2023-05-07T08:03:04;18.05;;;11.18;;
71975;SDS011;68326;52.124;5.424;2023-05-07T08:05:31;15.30;;;11.20;;
71975;SDS011;68326;52.124;5.424;2023-05-07T08:07:57;15.02;;;10.90;;
71975;SDS011;68326;52.124;5.424;2023-05-07T08:10:24;14.23;;;9.82;;
71975;SDS011;68326;52.124;5.424;2023-05-07T08:12:51;16.17;;;11.43;;
71975;SDS011;68326;52.124;5.424;2023-05-07T08:15:17;17.38;;;11.77;;
71975;SDS011;68326;52.124;5.424;2023-05-07T08:17:44;18.00;;;11.43;;
71975;SDS011;68326;52.124;5.424;2023-05-07T08:20:10;15.63;;;11.32;;
71975;SDS011;68326;52.124;5.424;2023-05-07T08:22:37;14.82;;;11.00;;
71975;SDS011;68326;52.124;5.424;2023-05-07T08:25:04;15.45;;;10.95;;
71975;SDS011;68326;52.124;5.424;2023-05-07T08:27:30;17.35;;;11.65;;
71975;SDS011;68326;52.124;5.424;2023-05-07T08:29:57;17.10;;;11.83;;
71975;SDS011;68326;52.124;5.424;2023-05-07T08:32:23;18.23;;;12.38;;
71975;SDS011;68326;52.124;5.424;2023-05-07T08:34:50;19.85;;;12.30;;
71975;SDS011;68326;52.124;5.424;2023-05-07T08:37:17;16.20;;;11.73;;
71975;SDS011;68326;52.124;5.424;2023-05-07T08:39:43;18.35;;;12.10;;
71975;SDS011;68326;52.124;5.424;2023-05-07T08:42:09;17.83;;;12.57;;
71975;SDS011;68326;52.124;5.424;2023-05-07T08:44:38;15.82;;;12.10;;
71975;SDS011;68326;52.124;5.424;2023-05-07T08:47:07;17.48;;;11.55;;
71975;SDS011;68326;52.124;5.424;2023-05-07T08:49:33;18.52;;;12.65;;
71975;SDS011;68326;52.124;5.424;2023-05-07T08:52:01;17.98;;;12.18;;
71975;SDS011;68326;52.124;5.424;2023-05-07T08:54:27;17.90;;;11.73;;
71975;SDS011;68326;52.124;5.424;2023-05-07T08:56:55;16.40;;;11.90;;
71975;SDS011;68326;52.124;5.424;2023-05-07T08:59:21;18.15;;;12.75;;
71975;SDS011;68326;52.124;5.424;2023-05-07T09:01:48;19.08;;;12.82;;
71975;SDS011;68326;52.124;5.424;2023-05-07T09:04:15;16.80;;;12.15;;
71975;SDS011;68326;52.124;5.424;2023-05-07T09:06:42;17.43;;;12.03;;
71975;SDS011;68326;52.124;5.424;2023-05-07T09:09:08;22.27;;;13.27;;
71975;SDS011;68326;52.124;5.424;2023-05-07T09:11:34;19.58;;;12.50;;
71975;SDS011;68326;52.124;5.424;2023-05-07T09:14:01;22.88;;;13.55;;
71975;SDS011;68326;52.124;5.424;2023-05-07T09:16:29;18.30;;;13.27;;
71975;SDS011;68326;52.124;5.424;2023-05-07T09:18:57;18.13;;;13.57;;
71975;SDS011;68326;52.124;5.424;2023-05-07T09:21:25;18.17;;;12.40;;
71975;SDS011;68326;52.124;5.424;2023-05-07T09:23:52;20.10;;;12.82;;
71975;SDS011;68326;52.124;5.424;2023-05-07T09:26:23;19.85;;;13.13;;
71975;SDS011;68326;52.124;5.424;2023-05-07T09:28:50;20.75;;;13.40;;
71975;SDS011;68326;52.124;5.424;2023-05-07T09:31:17;17.33;;;11.90;;
71975;SDS011;68326;52.124;5.424;2023-05-07T09:33:46;17.48;;;12.32;;
71975;SDS011;68326;52.124;5.424;2023-05-07T09:36:13;18.33;;;12.90;;
71975;SDS011;68326;52.124;5.424;2023-05-07T09:38:40;17.40;;;12.15;;
71975;SDS011;68326;52.124;5.424;2023-05-07T09:43:35;16.17;;;12.07;;
71975;SDS011;68326;52.124;5.424;2023-05-07T09:46:06;15.38;;;11.25;;
71975;SDS011;68326;52.124;5.424;2023-05-07T09:48:43;18.38;;;11.98;;
71975;SDS011;68326;52.124;5.424;2023-05-07T09:53:56;18.25;;;12.15;;
71975;SDS011;68326;52.124;5.424;2023-05-07T09:56:23;18.07;;;12.40;;
71975;SDS011;68326;52.124;5.424;2023-05-07T09:58:51;16.83;;;11.88;;
71975;SDS011;68326;52.124;5.424;2023-05-07T10:01:20;16.45;;;12.27;;
71975;SDS011;68326;52.124;5.424;2023-05-07T10:03:48;18.92;;;11.80;;
71975;SDS011;68326;52.124;5.424;2023-05-07T10:06:16;17.80;;;12.50;;
71975;SDS011;68326;52.124;5.424;2023-05-07T10:08:43;19.30;;;12.93;;
71975;SDS011;68326;52.124;5.424;2023-05-07T10:11:10;16.67;;;11.85;;
71975;SDS011;68326;52.124;5.424;2023-05-07T10:13:38;19.17;;;12.60;;
71975;SDS011;68326;52.124;5.424;2023-05-07T10:16:04;17.83;;;12.57;;
71975;SDS011;68326;52.124;5.424;2023-05-07T10:18:31;18.67;;;12.25;;
71975;SDS011;68326;52.124;5.424;2023-05-07T10:21:02;17.37;;;11.57;;
71975;SDS011;68326;52.124;5.424;2023-05-07T10:23:29;14.38;;;10.15;;
71975;SDS011;68326;52.124;5.424;2023-05-07T10:25:57;16.10;;;11.65;;
71975;SDS011;68326;52.124;5.424;2023-05-07T10:28:26;16.42;;;12.13;;
71975;SDS011;68326;52.124;5.424;2023-05-07T10:34:06;15.87;;;11.60;;
71975;SDS011;68326;52.124;5.424;2023-05-07T10:36:36;20.27;;;12.23;;
71975;SDS011;68326;52.124;5.424;2023-05-07T10:39:04;17.58;;;11.52;;
71975;SDS011;68326;52.124;5.424;2023-05-07T10:41:32;15.77;;;11.60;;
71975;SDS011;68326;52.124;5.424;2023-05-07T10:43:58;15.52;;;10.68;;
71975;SDS011;68326;52.124;5.424;2023-05-07T10:46:28;15.67;;;10.80;;
71975;SDS011;68326;52.124;5.424;2023-05-07T10:51:27;16.98;;;10.38;;
71975;SDS011;68326;52.124;5.424;2023-05-07T10:56:37;16.58;;;11.68;;
71975;SDS011;68326;52.124;5.424;2023-05-07T11:01:57;18.13;;;11.82;;
71975;SDS011;68326;52.124;5.424;2023-05-07T11:04:24;16.65;;;11.65;;
71975;SDS011;68326;52.124;5.424;2023-05-07T11:09:53;16.38;;;11.13;;
71975;SDS011;68326;52.124;5.424;2023-05-07T11:13:07;16.63;;;11.23;;
71975;SDS011;68326;52.124;5.424;2023-05-07T11:15:09;17.33;;;11.98;;
71975;SDS011;68326;52.124;5.424;2023-05-07T11:17:52;15.32;;;11.00;;
71975;SDS011;68326;52.124;5.424;2023-05-07T11:20:20;16.33;;;11.57;;
71975;SDS011;68326;52.124;5.424;2023-05-07T11:22:47;16.75;;;11.65;;
71975;SDS011;68326;52.124;5.424;2023-05-07T11:25:17;16.77;;;11.50;;
71975;SDS011;68326;52.124;5.424;2023-05-07T11:27:47;15.48;;;11.38;;
71975;SDS011;68326;52.124;5.424;2023-05-07T11:30:16;17.13;;;10.65;;
71975;SDS011;68326;52.124;5.424;2023-05-07T11:32:46;17.70;;;12.52;;
71975;SDS011;68326;52.124;5.424;2023-05-07T11:35:13;16.80;;;11.40;;
71975;SDS011;68326;52.124;5.424;2023-05-07T11:37:41;17.30;;;11.87;;
71975;SDS011;68326;52.124;5.424;2023-05-07T11:40:09;15.80;;;11.15;;
71975;SDS011;68326;52.124;5.424;2023-05-07T11:42:37;16.52;;;12.35;;
71975;SDS011;68326;52.124;5.424;2023-05-07T11:45:05;16.33;;;11.80;;
71975;SDS011;68326;52.124;5.424;2023-05-07T11:47:33;15.57;;;11.75;;
71975;SDS011;68326;52.124;5.424;2023-05-07T11:50:04;18.53;;;12.37;;
71975;SDS011;68326;52.124;5.424;2023-05-07T11:52:34;17.58;;;12.02;;
71975;SDS011;68326;52.124;5.424;2023-05-07T11:55:02;16.92;;;12.98;;
71975;SDS011;68326;52.124;5.424;2023-05-07T11:57:32;14.63;;;12.25;;
71975;SDS011;68326;52.124;5.424;2023-05-07T11:59:59;18.00;;;12.65;;
71975;SDS011;68326;52.124;5.424;2023-05-07T12:02:27;15.17;;;11.60;;
71975;SDS011;68326;52.124;5.424;2023-05-07T12:04:54;18.58;;;13.32;;
71975;SDS011;68326;52.124;5.424;2023-05-07T12:07:21;18.90;;;12.98;;
71975;SDS011;68326;52.124;5.424;2023-05-07T12:09:49;16.55;;;12.23;;
71975;SDS011;68326;52.124;5.424;2023-05-07T12:12:16;18.55;;;12.73;;
71975;SDS011;68326;52.124;5.424;2023-05-07T12:14:44;18.37;;;12.23;;
71975;SDS011;68326;52.124;5.424;2023-05-07T12:17:12;18.33;;;13.05;;
71975;SDS011;68326;52.124;5.424;2023-05-07T12:19:41;17.40;;;12.55;;
71975;SDS011;68326;52.124;5.424;2023-05-07T12:22:09;15.07;;;12.30;;
71975;SDS011;68326;52.124;5.424;2023-05-07T12:24:46;19.02;;;12.80;;
71975;SDS011;68326;52.124;5.424;2023-05-07T12:27:14;19.80;;;12.97;;
71975;SDS011;68326;52.124;5.424;2023-05-07T12:29:48;14.35;;;11.68;;
71975;SDS011;68326;52.124;5.424;2023-05-07T12:32:16;17.40;;;12.38;;
71975;SDS011;68326;52.124;5.424;2023-05-07T12:34:44;15.10;;;11.73;;
71975;SDS011;68326;52.124;5.424;2023-05-07T12:37:12;15.43;;;11.80;;
71975;SDS011;68326;52.124;5.424;2023-05-07T12:39:48;16.50;;;12.37;;
71975;SDS011;68326;52.124;5.424;2023-05-07T12:42:15;15.38;;;10.55;;
71975;SDS011;68326;52.124;5.424;2023-05-07T12:44:45;16.88;;;10.75;;
71975;SDS011;68326;52.124;5.424;2023-05-07T12:47:12;15.23;;;10.25;;
71975;SDS011;68326;52.124;5.424;2023-05-07T12:49:38;14.75;;;10.60;;
71975;SDS011;68326;52.124;5.424;2023-05-07T12:52:06;12.53;;;9.03;;
71975;SDS011;68326;52.124;5.424;2023-05-07T12:54:33;10.68;;;8.75;;
71975;SDS011;68326;52.124;5.424;2023-05-07T12:57:03;10.85;;;8.02;;
71975;SDS011;68326;52.124;5.424;2023-05-07T12:59:41;10.35;;;7.20;;
71975;SDS011;68326;52.124;5.424;2023-05-07T13:02:08;12.55;;;8.23;;
71975;SDS011;68326;52.124;5.424;2023-05-07T13:04:36;10.93;;;9.30;;
71975;SDS011;68326;52.124;5.424;2023-05-07T13:07:02;15.40;;;9.70;;
71975;SDS011;68326;52.124;5.424;2023-05-07T13:09:29;12.60;;;9.65;;
71975;SDS011;68326;52.124;5.424;2023-05-07T13:11:57;13.38;;;10.15;;
71975;SDS011;68326;52.124;5.424;2023-05-07T13:14:26;14.15;;;10.02;;
71975;SDS011;68326;52.124;5.424;2023-05-07T13:16:52;11.67;;;9.10;;
71975;SDS011;68326;52.124;5.424;2023-05-07T13:19:18;11.82;;;9.20;;
71975;SDS011;68326;52.124;5.424;2023-05-07T13:21:45;13.18;;;9.85;;
71975;SDS011;68326;52.124;5.424;2023-05-07T13:24:12;11.68;;;8.93;;
71975;SDS011;68326;52.124;5.424;2023-05-07T13:26:38;11.55;;;8.73;;
71975;SDS011;68326;52.124;5.424;2023-05-07T13:29:04;12.60;;;8.77;;
71975;SDS011;68326;52.124;5.424;2023-05-07T13:31:31;12.05;;;8.32;;
71975;SDS011;68326;52.124;5.424;2023-05-07T13:33:58;11.57;;;8.55;;
71975;SDS011;68326;52.124;5.424;2023-05-07T13:36:24;10.00;;;7.55;;
71975;SDS011;68326;52.124;5.424;2023-05-07T13:38:50;10.10;;;6.93;;
71975;SDS011;68326;52.124;5.424;2023-05-07T13:41:18;9.20;;;7.27;;
71975;SDS011;68326;52.124;5.424;2023-05-07T13:43:44;9.60;;;7.18;;
71975;SDS011;68326;52.124;5.424;2023-05-07T13:46:10;11.10;;;8.27;;
71975;SDS011;68326;52.124;5.424;2023-05-07T13:48:37;12.05;;;8.30;;
71975;SDS011;68326;52.124;5.424;2023-05-07T13:51:03;11.70;;;9.50;;
71975;SDS011;68326;52.124;5.424;2023-05-07T13:53:30;14.23;;;9.97;;
71975;SDS011;68326;52.124;5.424;2023-05-07T13:55:57;13.88;;;9.93;;
71975;SDS011;68326;52.124;5.424;2023-05-07T13:58:23;14.45;;;10.80;;
71975;SDS011;68326;52.124;5.424;2023-05-07T14:00:49;13.10;;;9.82;;
71975;SDS011;68326;52.124;5.424;2023-05-07T14:03:16;15.90;;;11.40;;
71975;SDS011;68326;52.124;5.424;2023-05-07T14:05:43;13.80;;;10.37;;
71975;SDS011;68326;52.124;5.424;2023-05-07T14:08:10;13.70;;;10.35;;
71975;SDS011;68326;52.124;5.424;2023-05-07T14:10:38;13.75;;;10.27;;
71975;SDS011;68326;52.124;5.424;2023-05-07T14:13:05;15.32;;;10.18;;
71975;SDS011;68326;52.124;5.424;2023-05-07T14:15:32;14.48;;;10.10;;
71975;SDS011;68326;52.124;5.424;2023-05-07T14:17:59;13.77;;;9.70;;
71975;SDS011;68326;52.124;5.424;2023-05-07T14:20:26;14.98;;;10.88;;
71975;SDS011;68326;52.124;5.424;2023-05-07T14:22:52;18.48;;;11.10;;
71975;SDS011;68326;52.124;5.424;2023-05-07T14:25:20;14.55;;;10.90;;
71975;SDS011;68326;52.124;5.424;2023-05-07T14:27:46;15.00;;;11.18;;
71975;SDS011;68326;52.124;5.424;2023-05-07T14:30:13;14.33;;;10.77;;
71975;SDS011;68326;52.124;5.424;2023-05-07T14:32:39;14.32;;;10.70;;
71975;SDS011;68326;52.124;5.424;2023-05-07T14:35:06;13.23;;;10.00;;
71975;SDS011;68326;52.124;5.424;2023-05-07T14:37:32;16.95;;;11.45;;
71975;SDS011;68326;52.124;5.424;2023-05-07T14:39:59;13.85;;;10.70;;
71975;SDS011;68326;52.124;5.424;2023-05-07T14:42:25;14.67;;;10.07;;
71975;SDS011;68326;52.124;5.424;2023-05-07T14:44:52;12.40;;;9.40;;
71975;SDS011;68326;52.124;5.424;2023-05-07T14:47:19;12.55;;;8.32;;
71975;SDS011;68326;52.124;5.424;2023-05-07T14:49:45;15.10;;;9.13;;